Flight Track Log - Related Links

Times and Time Zones

All times are in EDT time to prevent confusion due to time zone crossing. See the N287KB flight status page for this flight to view local times or setup timezone preferences in your user account.

Time Position Orientation Groundspeed Altitude Reporting Facility
EDT Latitude Longitude Course Direction KTS MPH feet Rate Location/Type
Tue 05:42:54 PM 44.5253 -109.1783 244° Southwest 222 255 12,600  Level Salt Lake Center
Tue 05:43:55 PM 44.4778 -109.3169 244° Southwest 320 368 15,100 2,000 Climbing Salt Lake Center
Tue 05:44:57 PM 44.4217 -109.4392 237° Southwest 361 415 16,700 1,839 Climbing Salt Lake Center
Tue 05:45:59 PM 44.3625 -109.5647 237° Southwest 392 451 18,900 2,032 Climbing Salt Lake Center
Tue 05:47:01 PM 44.2947 -109.7150 238° Southwest 405 466 20,900 1,984 Climbing Salt Lake Center
Tue 05:48:00 PM 44.1659 -109.8192 244° Southwest  Level Estimated
Tue 05:48:03 PM 44.2333 -109.8500 238° Southwest 422 486 23,000  Level Salt Lake Center
Tue 05:49:05 PM 44.1706 -109.9864 237° Southwest 432 497 24,600 1,935 Climbing Salt Lake Center
Tue 05:50:07 PM 44.0969 -110.1461 237° Southwest 437 503 27,000 2,098 Climbing Salt Lake Center
Tue 05:51:08 PM 44.0331 -110.2806 237° Southwest 434 499 28,900 1,805 Climbing Salt Lake Center
Tue 05:52:10 PM 43.9619 -110.4364 238° Southwest 427 491 30,700 1,452 Climbing Salt Lake Center
Tue 05:53:12 PM 43.8989 -110.5678 236° Southwest 427 491 31,900 1,113 Climbing Salt Lake Center
Tue 05:54:14 PM 43.8278 -110.7206 237° Southwest 423 487 33,000 774 Climbing Salt Lake Center
Tue 05:55:16 PM 43.7656 -110.8539 237° Southwest 430 495 33,500 488 Climbing Salt Lake Center
Tue 05:56:17 PM 43.6986 -110.9908 236° Southwest 445 512 34,000 244 Climbing Salt Lake Center
Tue 05:57:19 PM 43.6228 -111.1503 237° Southwest 445 512 34,000  Level Salt Lake Center
Tue 05:58:21 PM 43.5567 -111.2864 236° Southwest 445 512 34,000  Level Salt Lake Center
Tue 05:59:23 PM 43.4803 -111.4447 236° Southwest 445 512 34,000  Level Salt Lake Center
Tue 06:00:24 PM 43.4150 -111.5789 236° Southwest 441 507 34,000  Level Salt Lake Center
Tue 06:01:26 PM 43.3503 -111.7133 237° Southwest 441 507 34,000  Level Salt Lake Center
Tue 06:02:28 PM 43.2728 -111.8683 236° Southwest 441 507 34,000  Level Salt Lake Center
Tue 06:03:30 PM 43.2064 -112.0028 236° Southwest 445 512 34,000  Level Salt Lake Center
Tue 06:04:31 PM 43.1292 -112.1581 236° Southwest 443 510 34,000  Level Salt Lake Center
Tue 06:05:33 PM 43.0628 -112.2928 236° Southwest 443 510 34,000  Level Salt Lake Center
Tue 06:06:35 PM 42.9844 -112.4483 235° Southwest 445 512 34,000  Level Salt Lake Center
Tue 06:07:37 PM 42.9186 -112.5792 236° Southwest 439 505 34,000  Level Salt Lake Center
Tue 06:08:39 PM 42.8522 -112.7131 236° Southwest 442 509 34,000  Level Salt Lake Center
Tue 06:09:40 PM 42.7731 -112.8672 235° Southwest 444 511 34,000  Level Salt Lake Center
Tue 06:10:42 PM 42.7067 -113.0003 236° Southwest 445 512 34,000  Level Salt Lake Center
Tue 06:11:44 PM 42.6350 -113.1375 235° Southwest 445 512 34,000  Level Salt Lake Center
Tue 06:12:46 PM 42.5644 -113.2756 235° Southwest 446 513 34,000  Level Salt Lake Center
Tue 06:13:47 PM 42.4803 -113.4347 234° Southwest 438 504 34,000  Level Salt Lake Center
Tue 06:14:49 PM 42.4103 -113.5719 235° Southwest 441 507 34,000  Level Salt Lake Center
Tue 06:15:51 PM 42.3403 -113.7056 235° Southwest 439 505 34,000  Level Salt Lake Center
Tue 06:16:53 PM 42.2697 -113.8400 235° Southwest 440 506 34,000  Level Salt Lake Center
Tue 06:17:55 PM 42.2011 -113.9731 235° Southwest 437 503 34,000  Level Salt Lake Center
Tue 06:18:56 PM 42.1286 -114.1081 234° Southwest 441 507 34,000  Level Salt Lake Center
Tue 06:19:58 PM 42.0431 -114.2708 235° Southwest 445 512 34,000  Level Salt Lake Center
Tue 06:21:00 PM 41.9706 -114.4047 234° Southwest 445 512 34,000  Level Salt Lake Center
Tue 06:22:02 PM 41.9044 -114.5311 235° Southwest 443 510 34,000  Level Salt Lake Center
Tue 06:23:03 PM 41.8233 -114.6775 233° Southwest 439 505 34,000  Level Salt Lake Center
Tue 06:24:05 PM 41.7536 -114.8061 234° Southwest 443 510 34,000  Level Salt Lake Center
Tue 06:25:07 PM 41.6878 -114.9686 242° Southwest 444 511 34,000  Level Salt Lake Center
Tue 06:26:09 PM 41.6289 -115.1075 240° Southwest 447 514 34,000  Level Salt Lake Center
Tue 06:27:10 PM 41.5600 -115.2672 240° Southwest 444 511 34,000  Level Salt Lake Center
Tue 06:28:12 PM 41.5014 -115.4056 241° Southwest 447 514 34,000  Level Salt Lake Center
Tue 06:29:14 PM 41.4419 -115.5428 240° Southwest 447 514 34,000  Level Salt Lake Center
Tue 06:30:16 PM 41.3728 -115.7031 240° Southwest 446 513 34,000  Level Salt Lake Center
Tue 06:31:18 PM 41.3133 -115.8381 240° Southwest 443 510 34,000  Level Salt Lake Center
Tue 06:32:19 PM 41.2442 -115.9950 240° Southwest 441 507 34,000  Level Salt Lake Center
Tue 06:33:21 PM 41.1847 -116.1308 240° Southwest 443 510 34,000  Level Salt Lake Center
Tue 06:34:23 PM 41.1144 -116.2903 240° Southwest 448 516 34,000  Level Salt Lake Center
Tue 06:35:25 PM 41.0553 -116.4264 240° Southwest 448 516 34,000  Level Salt Lake Center
Tue 06:36:26 PM 40.9847 -116.5825 239° Southwest 445 512 34,000  Level Salt Lake Center
Tue 06:37:28 PM 40.9231 -116.7161 239° Southwest 445 512 34,000  Level Salt Lake Center
Tue 06:38:30 PM 40.8625 -116.8506 239° Southwest 446 513 34,000  Level Salt Lake Center
Tue 06:39:31 PM 40.7925 -117.0067 239° Southwest 445 512 34,000  Level Salt Lake Center
Tue 06:40:33 PM 40.7319 -117.1400 239° Southwest 447 514 34,000  Level Salt Lake Center
Tue 06:41:35 PM 40.6594 -117.2958 239° Southwest 448 516 34,000  Level Salt Lake Center
Tue 06:42:37 PM 40.5992 -117.4311 240° Southwest 450 518 34,000  Level Salt Lake Center
Tue 06:43:38 PM 40.5264 -117.5858 238° Southwest 448 516 34,000  Level Salt Lake Center
Tue 06:44:40 PM 40.4628 -117.7200 238° Southwest 451 519 34,000  Level Salt Lake Center
Tue 06:45:41 PM 40.3906 -117.8756 239° Southwest 450 518 34,000  Level Salt Lake Center
Tue 06:46:43 PM 40.3278 -118.0081 238° Southwest 448 516 34,000  Level Salt Lake Center
Tue 06:47:45 PM 40.2542 -118.1639 238° Southwest 450 518 34,000  Level Salt Lake Center
Tue 06:48:46 PM 40.1906 -118.2989 238° Southwest 455 524 34,000  Level Salt Lake Center
Tue 06:49:48 PM 40.1247 -118.4328 237° Southwest 456 525 34,000  Level Salt Lake Center
Tue 06:50:50 PM 40.0542 -118.5814 238° Southwest 455 524 34,000  Level Salt Lake Center
Tue 06:51:51 PM 39.9886 -118.7228 239° Southwest 456 525 34,000  Level Salt Lake Center
Tue 06:52:53 PM 39.8969 -118.8344 223° Southwest 458 527 34,000  Level Salt Lake Center
Tue 06:53:55 PM 39.7808 -118.9586 219° Southwest 455 524 34,000  Level Salt Lake Center
Tue 06:54:56 PM 39.6844 -119.0625 220° Southwest 455 524 34,000  Level Salt Lake Center
Tue 06:56:11 PM 39.5689 -119.1869 220° Southwest 452 520 34,000  Level Oakland Center
Tue 06:57:12 PM 39.4719 -119.2903 219° Southwest 454 522 34,000  Level Oakland Center
Tue 06:58:13 PM 39.3753 -119.3925 219° Southwest 453 521 34,000  Level Oakland Center
Tue 06:59:15 PM 39.2783 -119.4950 219° Southwest 452 520 34,000 -581 Level Oakland Center
Tue 07:00:17 PM 39.1619 -119.6167 219° Southwest 451 519 32,800 -1,463 Descending Oakland Center
Tue 07:01:18 PM 39.0644 -119.7194 219° Southwest 454 522 31,000 -1,820 Descending Oakland Center
Tue 07:02:19 PM 38.9661 -119.8217 219° Southwest 454 522 29,100 -1,805 Descending Oakland Center
Tue 07:03:21 PM 38.8761 -119.9164 219° Southwest 456 525 27,300 -1,854 Descending Oakland Center
Tue 07:04:22 PM 38.7750 -120.0211 219° Southwest 463 533 25,300 -2,000 Descending Oakland Center
Tue 07:05:24 PM 38.6594 -120.1406 219° Southwest 447 514 23,200 -1,854 Descending Oakland Center
Tue 07:06:25 PM 38.5681 -120.2369 220° Southwest 431 496 21,500 -1,672 Descending Oakland Center
Tue 07:07:26 PM 38.4733 -120.3331 218° Southwest 430 495 19,800 -1,659 Descending Oakland Center
Tue 07:08:28 PM 38.3828 -120.4272 219° Southwest 426 490 18,100 -1,805 Descending Oakland Center
Tue 07:09:29 PM 38.3042 -120.5308 226° Southwest 409 471 16,100 -1,967 Descending Oakland Center
Tue 07:10:30 PM 38.2264 -120.6350 226° Southwest 403 464 14,100 -1,854 Descending Oakland Center
Tue 07:11:32 PM 38.1550 -120.7333 227° Southwest 383 441 12,300 -1,756 Descending Oakland Center
Tue 07:12:33 PM 38.0925 -120.8192 227° Southwest 340 391 10,500 -1,854 Descending Oakland Center
Tue 07:13:35 PM 38.0378 -120.8947 227° Southwest 304 350 8,500 -2,146 Descending Oakland Center
Tue 07:14:36 PM 37.9861 -120.9653 227° Southwest 279 321 6,100 -2,049 Descending Oakland Center
Tue 07:15:38 PM 37.9356 -121.0300 225° Southwest 270 311 4,300 -1,317 Descending Oakland Center
Tue 07:16:39 PM 37.8872 -121.0711 214° Southwest 225 259 3,400 -1,189 Descending Oakland Center
Tue 07:17:24 PM 37.8500 -121.1167 224° Southwest 187 215 2,200 -1,273 Descending Northern Cal TRACON
Tue 07:18:18 PM 37.8500 -121.1667 270° West 158 182 1,300 -895 Descending Northern Cal TRACON
Tue 07:19:18 PM 37.8667 -121.2000 302° West 124 143 500 -800 Descending Northern Cal TRACON
Tue 07:22:00 PM 37.8833 -121.2333 314° West  Level FlightAware Approximate

Login

Don't have an account? Register now (free) for customized features, flight alerts, and more!